Airfield :
LOGIN :

Register | Disclaimer

   EN    FR    IT 

 










Legend :    VFR   Marginal VFR   IFR   Intensive IFR   Very Intensive IFR
Visi :
Ceiling :
>= 8 km
>= 3000ft
5 to 8 km
1000 to 3000 ft
1500m to 5 km
500 to 1000 ft
800 to 1500m
200 to 500 ft
< 800m
< 200 ft
Symbols :   Thunderstorms  Fog  Heavy snow  Heavy precipitations  Wind > 20 kt
SIGMETs :     Misc.  Thunderstorms  Icing  Turbulence  Mountain Waves  Volcanic Ashes






- Airport Elevation : 62 ft
- IATA code : TAN


GMTT - Tanger Ibn Batouta

CURRENT METAR :
  • 270530Z 08004KT CAVOK 08/07 Q1023 NOSIG

EXPIRED METARs :
  • 270500Z 08004KT 040V100 CAVOK 08/08 Q1023 NOSIG
  • 270430Z 08003KT 050V110 CAVOK 08/08 Q1023 NOSIG
  • 270400Z 08004KT CAVOK 08/07 Q1023 NOSIG
  • 270330Z 08005KT CAVOK 08/08 Q1023 NOSIG
  • 270300Z 10004KT CAVOK 08/08 Q1023 NOSIG

TAF TAF GMTT
Valid from the 27 at 06:00 until the 28 at 12:00 UTC


270500Z 2706/2812 24008KT CAVOK
PROB30 2800/2806 4000 BR



MET'MAP, your aeronautical weather chart ! - Copyright ORBIFLY December 2007 - Disclaimer

ORBIFLY MET'MAP TEAM :

Programming & Development : Alexandra Zaïnal
Concept & original design : Baudouin d'Aumeries
Assistance for programming : Marc-Olivier Méhu
Technical & hardware support : Manuel Goepfert

Contact : metmap@orbifly.com




SOURCES & CREDITS :

   NOAA